Time;durP1;ratioP1;P1;durP2;ratioP2;P2;SDS_P1;SDS_P2;PMS_P1;PMS_P2;Temp;Humidity;BMP_temperature;BMP_pressure;BME280_temperature;BME280_humidity;BME280_pressure;Samples;Min_cycle;Max_cycle;Signal;HPM_P1;HPM_P2
2023/07/12 00:01:14;;;;;;;6.88;5.05;;;22.10;99.90;;;;;;5032727;28;20045;-54
2023/07/12 00:03:39;;;;;;;7.40;4.78;;;22.10;99.90;;;;;;5032742;28;20032;-56
2023/07/12 00:06:15;;;;;;;7.70;4.43;;;22.10;99.90;;;;;;5031966;28;20030;-55
2023/07/12 00:08:41;;;;;;;4.95;4.28;;;22.10;99.90;;;;;;5031401;28;20033;-54
2023/07/12 00:11:16;;;;;;;6.90;4.47;;;22.10;99.90;;;;;;5032489;28;20026;-54
2023/07/12 00:13:42;;;;;;;9.00;4.33;;;22.10;99.90;;;;;;5032512;28;20017;-52
2023/07/12 00:18:36;;;;;;;11.13;3.88;;;22.00;99.90;;;;;;5010285;28;20065;-50
2023/07/12 00:21:02;;;;;;;6.38;4.28;;;22.00;99.90;;;;;;5012842;28;20026;-46
2023/07/12 00:23:28;;;;;;;4.47;3.72;;;22.00;99.90;;;;;;5012625;28;20104;-48
2023/07/12 00:25:53;;;;;;;8.02;4.07;;;21.90;99.90;;;;;;5012367;28;20069;-53
2023/07/12 00:28:24;;;;;;;6.60;4.13;;;21.90;99.90;;;;;;5012258;28;20037;-52
2023/07/12 00:30:51;;;;;;;6.95;3.65;;;21.90;99.90;;;;;;5012388;28;20457;-46
2023/07/12 00:33:19;;;;;;;7.50;4.38;;;21.90;99.90;;;;;;5011434;28;20054;-46
2023/07/12 00:35:44;;;;;;;5.47;4.55;;;21.90;99.90;;;;;;5011099;28;20072;-51
2023/07/12 00:38:21;;;;;;;7.57;4.30;;;21.80;99.90;;;;;;5009212;28;20034;-46
2023/07/12 00:40:59;;;;;;;8.80;3.75;;;21.80;99.90;;;;;;5012390;28;20029;-47
2023/07/12 00:43:47;;;;;;;9.65;4.18;;;21.80;99.90;;;;;;5012163;28;20030;-47
2023/07/12 00:46:30;;;;;;;5.57;3.58;;;21.80;99.90;;;;;;5009668;28;20026;-46
2023/07/12 00:48:55;;;;;;;8.23;3.70;;;21.80;99.90;;;;;;5012162;28;20517;-47
2023/07/12 00:51:39;;;;;;;5.43;3.70;;;21.90;99.90;;;;;;5012215;28;20092;-47
2023/07/12 00:54:17;;;;;;;5.07;3.45;;;21.90;99.90;;;;;;5012093;28;20033;-46
2023/07/12 00:56:43;;;;;;;6.80;3.40;;;21.80;99.90;;;;;;5011431;28;20021;-46
2023/07/12 00:59:08;;;;;;;8.80;3.70;;;21.80;99.90;;;;;;5010757;28;20041;-46
2023/07/12 01:01:36;;;;;;;6.60;3.22;;;21.70;99.90;;;;;;5012210;28;20084;-51
2023/07/12 01:04:03;;;;;;;6.15;3.60;;;21.70;99.90;;;;;;5012300;28;20025;-48
2023/07/12 01:06:29;;;;;;;5.40;3.10;;;21.60;99.90;;;;;;5011276;28;20022;-49
2023/07/12 01:09:01;;;;;;;8.15;3.95;;;21.70;99.90;;;;;;5011788;28;20026;-51
2023/07/12 01:11:28;;;;;;;6.97;3.33;;;21.60;99.90;;;;;;5011871;28;20018;-52
2023/07/12 01:13:54;;;;;;;4.78;3.40;;;21.60;99.90;;;;;;5011657;28;20084;-48
2023/07/12 01:16:21;;;;;;;6.10;3.72;;;21.60;99.90;;;;;;5010878;28;20032;-46
2023/07/12 01:18:47;;;;;;;6.43;3.00;;;21.60;99.90;;;;;;5011896;28;20390;-54
2023/07/12 01:21:22;;;;;;;4.43;3.20;;;21.60;99.90;;;;;;5011746;28;20033;-50
2023/07/12 01:23:47;;;;;;;7.07;3.33;;;21.60;99.90;;;;;;5010410;28;20088;-51
2023/07/12 01:26:35;;;;;;;8.68;3.40;;;21.60;99.90;;;;;;5010844;28;20525;-54
2023/07/12 01:29:04;;;;;;;5.43;3.67;;;21.60;99.90;;;;;;5011618;28;20109;-47
2023/07/12 01:31:30;;;;;;;5.47;3.03;;;21.60;99.90;;;;;;5011601;28;20018;-51
2023/07/12 01:33:56;;;;;;;6.75;3.78;;;21.60;99.90;;;;;;5011509;28;20029;-49
2023/07/12 01:36:23;;;;;;;6.53;3.33;;;21.60;99.90;;;;;;5010792;28;20477;-48
2023/07/12 01:38:56;;;;;;;4.38;3.70;;;21.60;99.90;;;;;;5010564;28;20025;-48
2023/07/12 01:41:21;;;;;;;8.48;3.90;;;21.60;99.90;;;;;;5011632;28;20029;-48
2023/07/12 01:43:47;;;;;;;3.50;3.10;;;21.60;99.90;;;;;;5011459;28;20030;-47
2023/07/12 01:46:13;;;;;;;6.28;4.00;;;21.60;99.90;;;;;;5010627;28;20057;-49
2023/07/12 01:48:39;;;;;;;7.88;3.33;;;21.50;99.90;;;;;;5011506;28;20490;-51
2023/07/12 01:51:05;;;;;;;3.67;3.22;;;21.60;99.90;;;;;;5011542;28;20057;-49
2023/07/12 01:53:33;;;;;;;7.25;3.58;;;21.60;99.90;;;;;;5011576;28;20026;-47
2023/07/12 01:55:59;;;;;;;6.55;3.63;;;21.60;99.90;;;;;;5011015;28;20029;-52
2023/07/12 01:58:26;;;;;;;7.53;3.80;;;21.60;99.90;;;;;;5013464;28;20510;-47
2023/07/12 02:00:52;;;;;;;6.18;4.13;;;21.60;99.90;;;;;;5015232;28;20425;-46
2023/07/12 02:03:18;;;;;;;8.50;3.30;;;21.60;99.90;;;;;;5013961;28;20030;-46
2023/07/12 02:05:44;;;;;;;5.20;3.17;;;21.60;99.90;;;;;;5015395;28;20082;-48
2023/07/12 02:08:10;;;;;;;6.43;3.35;;;21.60;99.90;;;;;;5014515;28;20517;-48
2023/07/12 02:10:36;;;;;;;11.10;3.40;;;21.60;99.90;;;;;;5015203;28;20044;-49
2023/07/12 02:13:02;;;;;;;7.50;3.20;;;21.60;99.90;;;;;;5015046;28;20093;-48
2023/07/12 02:15:28;;;;;;;6.13;3.05;;;21.60;99.90;;;;;;5014989;28;20030;-51
2023/07/12 02:17:53;;;;;;;4.03;3.22;;;21.60;99.90;;;;;;5014236;28;20505;-49
2023/07/12 02:20:19;;;;;;;9.48;4.63;;;21.60;99.90;;;;;;5014942;28;20022;-51
2023/07/12 02:22:46;;;;;;;6.35;3.78;;;21.60;99.90;;;;;;5014888;28;20033;-46
2023/07/12 02:25:13;;;;;;;4.03;3.58;;;21.60;99.90;;;;;;5014917;28;20053;-52
2023/07/12 02:27:40;;;;;;;9.75;3.65;;;21.60;99.90;;;;;;5013951;28;20021;-48
2023/07/12 02:30:12;;;;;;;7.30;4.07;;;21.50;99.90;;;;;;5014565;28;20454;-47
2023/07/12 02:32:37;;;;;;;7.82;3.67;;;21.50;99.90;;;;;;5014685;28;20042;-51
2023/07/12 02:35:03;;;;;;;6.85;3.30;;;21.50;99.90;;;;;;5014676;28;20041;-50
2023/07/12 02:37:29;;;;;;;11.02;3.95;;;21.50;99.90;;;;;;5013974;28;20446;-48
2023/07/12 02:39:55;;;;;;;9.95;4.50;;;21.40;99.90;;;;;;5013390;28;20061;-50
2023/07/12 02:42:21;;;;;;;5.82;3.67;;;21.40;99.90;;;;;;5014576;28;20029;-48
2023/07/12 02:44:46;;;;;;;5.57;3.72;;;21.40;99.90;;;;;;5014498;28;20026;-49
2023/07/12 02:47:12;;;;;;;9.77;3.75;;;21.40;99.90;;;;;;5016945;28;20045;-51
2023/07/12 02:49:38;;;;;;;3.80;3.50;;;21.40;99.90;;;;;;5014827;28;20033;-49
2023/07/12 02:52:05;;;;;;;9.30;4.22;;;21.40;99.90;;;;;;5014378;28;20017;-48
2023/07/12 02:54:31;;;;;;;7.20;4.07;;;21.30;99.90;;;;;;5013941;28;20172;-52
2023/07/12 02:56:58;;;;;;;8.90;3.65;;;21.30;99.90;;;;;;5013727;28;20033;-48
2023/07/12 02:59:24;;;;;;;6.80;3.35;;;21.30;99.90;;;;;;5014259;28;20034;-49
2023/07/12 03:01:50;;;;;;;5.47;3.63;;;21.30;99.90;;;;;;5014354;28;20461;-47
2023/07/12 03:04:16;;;;;;;8.68;4.13;;;21.30;99.90;;;;;;5014375;28;20033;-48
2023/07/12 03:06:42;;;;;;;6.65;3.53;;;21.30;99.90;;;;;;5013735;28;20552;-47
2023/07/12 03:09:08;;;;;;;8.13;3.83;;;21.30;99.90;;;;;;5013713;28;20121;-48
2023/07/12 03:11:34;;;;;;;5.05;2.92;;;21.30;99.90;;;;;;5013892;28;20101;-46
2023/07/12 03:13:59;;;;;;;6.82;3.83;;;21.30;99.90;;;;;;5013786;28;20030;-52
2023/07/12 03:16:25;;;;;;;6.90;3.70;;;21.20;99.90;;;;;;5013071;28;20037;-47
2023/07/12 03:18:52;;;;;;;6.95;3.42;;;21.20;99.90;;;;;;5013859;28;20021;-46
2023/07/12 03:21:18;;;;;;;6.80;3.25;;;21.10;99.90;;;;;;5013705;28;20064;-49
2023/07/12 03:23:43;;;;;;;8.55;3.70;;;21.20;99.90;;;;;;5013514;28;20450;-46
2023/07/12 03:26:09;;;;;;;8.20;3.83;;;21.20;99.90;;;;;;5013163;28;20034;-46
2023/07/12 03:28:34;;;;;;;7.22;3.90;;;21.10;99.90;;;;;;5013759;28;20108;-46
2023/07/12 03:31:10;;;;;;;6.25;3.30;;;21.10;99.90;;;;;;5013480;28;20030;-49
2023/07/12 03:33:35;;;;;;;7.82;3.75;;;21.00;99.90;;;;;;5012205;28;20026;-51
2023/07/12 03:36:02;;;;;;;8.43;4.10;;;21.00;99.90;;;;;;5012783;28;20103;-47
2023/07/12 03:38:29;;;;;;;7.90;3.05;;;21.00;99.90;;;;;;5012425;28;20030;-47
2023/07/12 03:40:56;;;;;;;7.70;3.60;;;21.00;99.90;;;;;;5013497;28;20022;-46
2023/07/12 03:43:22;;;;;;;7.72;3.50;;;21.10;99.90;;;;;;5011974;28;20033;-49
2023/07/12 03:45:48;;;;;;;5.30;3.20;;;21.00;99.90;;;;;;5012629;28;20033;-47
2023/07/12 03:48:13;;;;;;;8.88;3.72;;;21.00;99.90;;;;;;5012772;28;20041;-47
2023/07/12 03:50:45;;;;;;;10.80;3.30;;;21.00;99.90;;;;;;5013080;28;20026;-50
2023/07/12 03:53:11;;;;;;;13.13;3.33;;;21.00;99.90;;;;;;5013147;28;20042;-53
2023/07/12 03:55:42;;;;;;;11.20;4.43;;;21.00;99.90;;;;;;5012977;28;20478;-46
2023/07/12 03:58:11;;;;;;;7.00;3.60;;;21.10;99.90;;;;;;5012320;28;20025;-47
2023/07/12 04:00:39;;;;;;;9.65;4.25;;;21.10;99.90;;;;;;5013105;28;20100;-46
2023/07/12 04:03:05;;;;;;;8.95;3.72;;;21.20;99.90;;;;;;5013089;28;20033;-51
2023/07/12 04:05:35;;;;;;;6.18;3.35;;;21.20;99.90;;;;;;5011641;28;20026;-48
2023/07/12 04:08:00;;;;;;;8.63;4.20;;;21.30;99.90;;;;;;5012303;28;20072;-48
2023/07/12 04:10:27;;;;;;;8.80;3.75;;;21.40;99.90;;;;;;5012905;28;20057;-48
2023/07/12 04:12:52;;;;;;;5.97;3.75;;;21.40;99.90;;;;;;5012809;28;20018;-46
2023/07/12 04:15:18;;;;;;;4.70;4.10;;;21.30;99.90;;;;;;5012666;28;20026;-50
2023/07/12 04:17:43;;;;;;;6.47;3.72;;;21.30;99.90;;;;;;5011951;28;20512;-46
2023/07/12 04:20:10;;;;;;;4.32;3.80;;;21.20;99.90;;;;;;5012051;28;20034;-49
2023/07/12 04:22:35;;;;;;;9.13;3.70;;;21.20;99.90;;;;;;5012658;28;20096;-48
2023/07/12 04:25:01;;;;;;;10.15;4.57;;;21.20;99.90;;;;;;5011451;28;20021;-47
2023/07/12 04:27:26;;;;;;;8.73;4.88;;;21.20;99.90;;;;;;5012505;28;20535;-48
2023/07/12 04:29:52;;;;;;;8.43;4.68;;;21.20;99.90;;;;;;5012739;28;20030;-46
2023/07/12 04:32:17;;;;;;;15.23;4.45;;;21.20;99.90;;;;;;5012656;28;20508;-49
2023/07/12 04:34:43;;;;;;;9.38;5.40;;;21.30;99.90;;;;;;5012272;28;20026;-49
2023/07/12 04:37:08;;;;;;;13.27;4.20;;;21.30;99.90;;;;;;5011696;28;20481;-53
2023/07/12 04:39:34;;;;;;;8.05;5.15;;;21.30;99.90;;;;;;5011369;28;20033;-47
2023/07/12 04:41:59;;;;;;;6.63;4.53;;;21.40;99.90;;;;;;5011004;28;20036;-48
2023/07/12 04:44:25;;;;;;;9.43;4.30;;;21.50;99.90;;;;;;5012104;28;20033;-52
2023/07/12 04:46:50;;;;;;;8.05;4.15;;;21.50;99.90;;;;;;5011766;28;20035;-48
2023/07/12 04:49:16;;;;;;;11.05;5.13;;;21.50;99.90;;;;;;5012383;28;20508;-46
2023/07/12 04:51:42;;;;;;;9.43;4.78;;;21.50;99.90;;;;;;5012576;28;20041;-49
2023/07/12 04:54:07;;;;;;;16.33;4.68;;;21.50;99.90;;;;;;5011106;28;20556;-51
2023/07/12 04:56:33;;;;;;;9.88;5.10;;;21.50;99.90;;;;;;5011449;28;20548;-51
2023/07/12 04:58:58;;;;;;;13.05;5.25;;;21.60;99.90;;;;;;5012140;28;20018;-52
2023/07/12 05:01:24;;;;;;;10.68;4.50;;;21.60;99.90;;;;;;5012041;28;20026;-46
2023/07/12 05:03:49;;;;;;;8.57;5.55;;;21.60;99.90;;;;;;5010490;28;20052;-53
2023/07/12 05:06:15;;;;;;;6.68;4.72;;;21.60;99.90;;;;;;5011354;28;20026;-46
2023/07/12 05:08:41;;;;;;;13.32;5.15;;;21.60;99.90;;;;;;5010549;28;20026;-50
2023/07/12 05:11:07;;;;;;;7.10;5.50;;;21.60;99.90;;;;;;5011776;28;20030;-47
2023/07/12 05:13:35;;;;;;;10.65;5.03;;;21.60;99.90;;;;;;5010705;28;20105;-50
2023/07/12 05:16:02;;;;;;;14.60;5.30;;;21.60;99.90;;;;;;5011175;28;20033;-47
2023/07/12 05:18:27;;;;;;;16.88;5.00;;;21.70;99.90;;;;;;5011834;28;20061;-48
2023/07/12 05:20:53;;;;;;;11.90;5.22;;;21.70;99.90;;;;;;5011784;28;20058;-52
2023/07/12 05:23:19;;;;;;;14.50;5.30;;;21.70;99.90;;;;;;5011801;28;20101;-51
2023/07/12 05:25:51;;;;;;;9.38;5.50;;;21.70;99.90;;;;;;5011568;28;20034;-53
2023/07/12 05:28:16;;;;;;;8.38;5.47;;;21.70;99.90;;;;;;5011432;28;20026;-49
2023/07/12 05:30:42;;;;;;;12.88;4.88;;;21.80;99.90;;;;;;5011977;28;20080;-47
2023/07/12 05:33:07;;;;;;;15.23;5.40;;;22.30;99.90;;;;;;5017308;28;20026;-50
2023/07/12 05:35:33;;;;;;;13.10;5.10;;;22.90;99.90;;;;;;5018038;28;20053;-49
2023/07/12 05:37:58;;;;;;;10.18;5.25;;;23.20;99.90;;;;;;5016532;28;20112;-52
2023/07/12 05:40:24;;;;;;;9.73;5.38;;;23.20;99.90;;;;;;5018071;28;20504;-49
2023/07/12 05:42:50;;;;;;;18.40;6.03;;;23.10;99.90;;;;;;5018233;28;20040;-50
2023/07/12 05:45:16;;;;;;;6.57;5.03;;;22.80;99.90;;;;;;5018430;28;20117;-42
2023/07/12 05:47:42;;;;;;;13.50;6.47;;;22.60;99.90;;;;;;5016332;28;20077;-46
2023/07/12 05:50:12;;;;;;;10.18;5.50;;;22.50;99.90;;;;;;5018331;28;20022;-45
2023/07/12 05:52:38;;;;;;;9.90;5.32;;;22.40;99.90;;;;;;5018033;28;20121;-51
2023/07/12 05:55:06;;;;;;;12.40;6.20;;;22.20;99.90;;;;;;5017843;28;20101;-52
2023/07/12 05:57:32;;;;;;;9.20;5.72;;;22.20;99.90;;;;;;5017115;28;20022;-51
2023/07/12 05:59:57;;;;;;;10.25;5.38;;;22.20;99.90;;;;;;5018084;28;20030;-51
2023/07/12 06:02:23;;;;;;;13.02;6.75;;;22.10;99.90;;;;;;5017836;28;20509;-46
2023/07/12 06:04:49;;;;;;;21.02;8.82;;;22.00;99.90;;;;;;5017752;28;20076;-50
2023/07/12 06:07:15;;;;;;;11.25;6.45;;;22.10;99.90;;;;;;5017040;28;20028;-50
2023/07/12 06:09:41;;;;;;;11.30;5.95;;;22.00;99.90;;;;;;5017871;28;20026;-52
2023/07/12 06:12:07;;;;;;;10.80;5.90;;;22.00;99.90;;;;;;5017941;28;20026;-52
2023/07/12 06:14:32;;;;;;;12.48;6.75;;;22.00;99.90;;;;;;5017756;28;20060;-48
2023/07/12 06:16:58;;;;;;;15.43;6.35;;;22.10;99.90;;;;;;5041691;22;20593;-54
2023/07/12 06:19:23;;;;;;;11.82;6.15;;;22.10;99.90;;;;;;5038350;28;20045;-49
2023/07/12 06:21:49;;;;;;;11.10;6.72;;;22.20;99.90;;;;;;5038464;28;20026;-51
2023/07/12 06:24:14;;;;;;;10.75;6.47;;;22.20;99.90;;;;;;5037867;28;20029;-52
2023/07/12 06:26:40;;;;;;;10.85;6.25;;;22.30;99.90;;;;;;5037367;28;20064;-50
2023/07/12 06:29:05;;;;;;;8.50;6.22;;;22.40;99.90;;;;;;5036745;28;20034;-50
2023/07/12 06:31:31;;;;;;;10.57;6.53;;;22.40;99.90;;;;;;5037538;28;20030;-51
2023/07/12 06:34:00;;;;;;;13.20;7.28;;;22.50;99.90;;;;;;5037600;28;20022;-52
2023/07/12 06:36:26;;;;;;;15.55;8.07;;;22.50;99.90;;;;;;5035483;28;20181;-50
2023/07/12 06:38:52;;;;;;;15.20;7.68;;;22.40;99.90;;;;;;5036578;28;20093;-50
2023/07/12 06:41:17;;;;;;;16.27;7.90;;;22.60;99.90;;;;;;5036199;28;20056;-51
2023/07/12 06:43:43;;;;;;;14.98;7.90;;;22.60;99.90;;;;;;5035079;28;20438;-50
2023/07/12 06:46:08;;;;;;;9.43;7.00;;;22.60;99.90;;;;;;5032057;28;20022;-51
2023/07/12 06:48:34;;;;;;;15.13;7.55;;;22.50;99.90;;;;;;5033080;28;20022;-53
2023/07/12 06:51:00;;;;;;;7.53;3.45;;;22.50;99.90;;;;;;5032882;28;20545;-53
2023/07/12 06:53:28;;;;;;;6.63;3.55;;;22.50;99.90;;;;;;5034162;28;20120;-51
2023/07/12 06:55:54;;;;;;;8.73;2.50;;;22.60;99.90;;;;;;5032594;28;20120;-51
2023/07/12 06:58:20;;;;;;;4.13;2.47;;;22.90;99.90;;;;;;5032454;28;20489;-52
2023/07/12 07:00:46;;;;;;;6.47;2.50;;;23.20;99.90;;;;;;5032674;28;20120;-49
2023/07/12 07:03:13;;;;;;;3.15;1.88;;;23.40;99.90;;;;;;5034006;28;20061;-50
2023/07/12 07:05:40;;;;;;;7.95;2.13;;;23.60;99.90;;;;;;5032688;28;20032;-53
2023/07/12 07:08:06;;;;;;;4.03;1.90;;;24.80;99.90;;;;;;5032072;28;20026;-50
2023/07/12 07:10:33;;;;;;;3.55;1.90;;;26.40;99.90;;;;;;5034052;28;20030;-55
2023/07/12 07:12:58;;;;;;;3.17;1.65;;;28.00;99.90;;;;;;5034037;28;20036;-53
2023/07/12 07:15:24;;;;;;;4.05;1.80;;;28.60;99.90;;;;;;5032676;28;20485;-51
2023/07/12 07:17:50;;;;;;;7.40;2.08;;;28.70;99.90;;;;;;5031940;28;20037;-49
2023/07/12 07:20:15;;;;;;;2.63;2.10;;;29.70;98.90;;;;;;5033884;28;20021;-47
2023/07/12 07:22:41;;;;;;;4.35;1.60;;;30.50;97.30;;;;;;5032545;28;20029;-54
2023/07/12 07:25:07;;;;;;;1.70;1.42;;;31.00;96.60;;;;;;5033924;28;20064;-51
2023/07/12 07:27:32;;;;;;;3.72;1.50;;;30.50;96.30;;;;;;5031778;28;20039;-52
2023/07/12 07:29:58;;;;;;;2.63;1.92;;;29.90;96.70;;;;;;5034048;28;20109;-51
2023/07/12 07:32:23;;;;;;;1.55;1.45;;;28.20;97.80;;;;;;5033604;28;20128;-51
2023/07/12 07:34:49;;;;;;;3.67;1.55;;;27.50;99.70;;;;;;5033412;28;20026;-49
2023/07/12 07:37:14;;;;;;;3.47;1.67;;;27.50;99.90;;;;;;5032851;28;20068;-51
2023/07/12 07:39:40;;;;;;;2.95;1.75;;;27.80;99.70;;;;;;5030992;28;20035;-53
2023/07/12 07:42:06;;;;;;;2.15;1.65;;;28.50;98.70;;;;;;5033390;28;20021;-53
2023/07/12 07:44:32;;;;;;;2.50;1.60;;;29.40;97.10;;;;;;5033614;28;20390;-52
2023/07/12 07:46:58;;;;;;;2.60;1.40;;;30.30;96.00;;;;;;5032812;28;20084;-54
2023/07/12 07:49:23;;;;;;;3.83;1.40;;;31.20;94.50;;;;;;5032097;28;20025;-53
2023/07/12 07:51:49;;;;;;;4.20;1.42;;;32.10;92.90;;;;;;5031970;28;20022;-52
2023/07/12 07:54:14;;;;;;;4.80;1.67;;;32.70;91.40;;;;;;5033151;28;20060;-49
2023/07/12 07:56:41;;;;;;;2.65;1.30;;;32.10;91.30;;;;;;5031359;28;20025;-53
2023/07/12 07:59:07;;;;;;;2.30;1.23;;;32.00;91.00;;;;;;5033345;28;20024;-51
2023/07/12 08:01:33;;;;;;;3.67;1.70;;;32.80;90.20;;;;;;5031791;28;20021;-54
2023/07/12 08:03:58;;;;;;;3.72;1.50;;;33.50;89.10;;;;;;5033009;28;20029;-55
2023/07/12 08:06:24;;;;;;;3.22;1.50;;;34.00;87.60;;;;;;5032231;28;20435;-50
2023/07/12 08:08:50;;;;;;;3.83;1.27;;;34.60;85.50;;;;;;5031596;28;20030;-50
2023/07/12 08:11:16;;;;;;;4.80;1.63;;;35.40;83.60;;;;;;5032671;28;20120;-50
2023/07/12 08:13:41;;;;;;;5.03;1.63;;;35.60;82.60;;;;;;5032947;28;20023;-49
2023/07/12 08:16:07;;;;;;;2.08;1.50;;;36.00;81.10;;;;;;5032011;28;20477;-50
2023/07/12 08:18:33;;;;;;;2.10;1.80;;;36.60;77.60;;;;;;5032586;28;20065;-51
2023/07/12 08:20:59;;;;;;;6.35;1.70;;;36.00;78.80;;;;;;5032730;28;20489;-55
2023/07/12 08:23:25;;;;;;;5.72;1.80;;;35.60;79.70;;;;;;5032532;28;20029;-57
2023/07/12 08:25:52;;;;;;;6.53;1.92;;;35.10;79.50;;;;;;5032159;28;20026;-54
2023/07/12 08:28:18;;;;;;;5.03;1.67;;;35.00;79.60;;;;;;5032335;28;20029;-55
2023/07/12 08:30:44;;;;;;;7.47;2.20;;;34.90;79.90;;;;;;5032385;28;20512;-50
2023/07/12 08:33:10;;;;;;;4.55;2.15;;;34.20;81.30;;;;;;5032556;28;20030;-51
2023/07/12 08:35:36;;;;;;;6.15;2.00;;;33.20;82.90;;;;;;5032967;28;20041;-53
2023/07/12 08:38:01;;;;;;;4.03;1.80;;;32.40;85.30;;;;;;5030888;28;20385;-54
2023/07/12 08:40:27;;;;;;;3.00;1.90;;;31.80;86.00;;;;;;5032334;28;20068;-51
2023/07/12 08:42:53;;;;;;;2.90;1.95;;;31.30;87.50;;;;;;5032213;28;20056;-51
2023/07/12 08:45:22;;;;;;;2.92;1.80;;;30.60;90.30;;;;;;5030392;28;20040;-52
2023/07/12 08:47:50;;;;;;;2.45;2.22;;;30.10;91.50;;;;;;5031691;28;20026;-53
2023/07/12 08:50:17;;;;;;;8.20;2.40;;;29.80;92.50;;;;;;5032201;28;20021;-52
2023/07/12 08:52:44;;;;;;;4.20;2.03;;;29.50;93.50;;;;;;5032249;28;20033;-52
2023/07/12 08:55:18;;;;;;;3.67;2.47;;;29.70;92.80;;;;;;5032003;28;20400;-54
2023/07/12 08:57:46;;;;;;;2.65;1.80;;;29.90;92.50;;;;;;5030086;28;20338;-50
2023/07/12 09:00:26;;;;;;;1.55;1.45;;;30.00;92.50;;;;;;5031949;28;20079;-54
2023/07/12 09:02:51;;;;;;;3.55;2.13;;;30.30;92.10;;;;;;5031955;28;20064;-49
2023/07/12 09:05:24;;;;;;;4.93;2.35;;;30.60;92.60;;;;;;5032053;28;20057;-49
2023/07/12 09:08:08;;;;;;;6.60;2.42;;;30.80;92.20;;;;;;5030911;28;20029;-49
2023/07/12 09:10:57;;;;;;;8.80;3.00;;;31.20;91.70;;;;;;5031889;28;20041;-51
2023/07/12 09:13:33;;;;;;;3.15;1.67;;;31.20;90.90;;;;;;5031783;28;20072;-50
2023/07/12 09:15:59;;;;;;;3.28;2.28;;;31.00;91.30;;;;;;5030070;28;20071;-55
2023/07/12 09:18:36;;;;;;;2.75;2.20;;;30.60;91.90;;;;;;5031628;28;20444;-54
2023/07/12 09:21:15;;;;;;;2.92;1.80;;;30.30;91.70;;;;;;5031806;28;20539;-51
2023/07/12 09:23:43;;;;;;;8.32;2.50;;;29.80;92.80;;;;;;5029968;28;20200;-55
2023/07/12 09:26:12;;;;;;;5.95;2.00;;;29.70;92.70;;;;;;5029833;28;20543;-51
2023/07/12 09:28:40;;;;;;;5.18;2.30;;;29.90;92.90;;;;;;5031795;28;20438;-52
2023/07/12 09:31:15;;;;;;;4.82;2.55;;;30.20;92.30;;;;;;5031501;28;20100;-52
2023/07/12 09:33:47;;;;;;;3.17;2.72;;;30.00;92.50;;;;;;5031653;28;20025;-52
2023/07/12 09:36:17;;;;;;;4.68;2.50;;;29.70;92.60;;;;;;5031213;28;20056;-52
2023/07/12 09:38:42;;;;;;;2.40;2.22;;;29.60;93.10;;;;;;5031770;28;20033;-53
2023/07/12 09:41:10;;;;;;;5.28;2.75;;;29.60;93.40;;;;;;5031649;28;20040;-55
2023/07/12 09:43:39;;;;;;;5.28;2.42;;;29.70;93.30;;;;;;5031493;28;20079;-54
2023/07/12 09:46:45;;;;;;;2.67;2.30;;;29.70;93.40;;;;;;5030765;28;20572;-54
2023/07/12 09:49:19;;;;;;;4.40;2.90;;;29.50;93.90;;;;;;5031650;28;20079;-51
2023/07/12 09:52:03;;;;;;;3.70;2.72;;;29.30;94.30;;;;;;5031663;28;20397;-50
2023/07/12 09:54:47;;;;;;;2.65;2.40;;;29.30;94.20;;;;;;5031540;28;20021;-53
2023/07/12 09:57:38;;;;;;;4.33;2.33;;;29.30;94.80;;;;;;5030865;28;20048;-54
2023/07/12 10:00:23;;;;;;;9.02;2.60;;;28.80;94.90;;;;;;5004128;28;20117;-52
2023/07/12 10:02:52;;;;;;;7.03;2.92;;;29.00;95.40;;;;;;5031168;28;20028;-53
2023/07/12 10:05:19;;;;;;;7.30;2.80;;;29.40;95.40;;;;;;5031019;28;20192;-55
2023/07/12 10:08:00;;;;;;;4.82;2.45;;;29.70;94.50;;;;;;5030600;28;20485;-53
2023/07/12 10:10:57;;;;;;;6.10;2.65;;;29.70;94.20;;;;;;5031200;28;20402;-52
2023/07/12 10:13:37;;;;;;;4.30;2.20;;;29.80;94.60;;;;;;5031252;28;20430;-54
2023/07/12 10:16:09;;;;;;;2.10;2.00;;;29.80;94.80;;;;;;5030403;28;20473;-50
2023/07/12 10:18:37;;;;;;;6.78;2.72;;;29.70;94.80;;;;;;5031696;28;20041;-53
2023/07/12 10:21:04;;;;;;;5.32;2.50;;;29.60;94.50;;;;;;5034959;28;20032;-53
2023/07/12 10:23:38;;;;;;;2.83;2.63;;;29.60;95.10;;;;;;5034823;28;20405;-56
2023/07/12 10:26:05;;;;;;;;;;;29.50;95.10;;;;;;5034595;28;20044;-53
2023/07/12 10:28:55;;;;;;;4.07;2.28;;;29.60;95.00;;;;;;5033492;28;19978;-53
2023/07/12 10:31:31;;;;;;;2.50;1.95;;;29.40;93.30;;;;;;5034784;28;20030;-55
2023/07/12 10:34:24;;;;;;;3.72;2.35;;;29.30;94.90;;;;;;5033298;28;20049;-53
2023/07/12 10:36:54;;;;;;;4.82;2.38;;;29.10;94.20;;;;;;5033783;28;20021;-52
2023/07/12 10:39:24;;;;;;;4.18;2.35;;;28.90;94.00;;;;;;5033568;28;20074;-53
2023/07/12 10:41:54;;;;;;;5.80;2.05;;;28.70;94.70;;;;;;5034488;28;20025;-52
2023/07/12 10:44:24;;;;;;;2.20;1.90;;;28.60;94.80;;;;;;5034479;28;20018;-53
2023/07/12 10:46:55;;;;;;;4.25;1.63;;;28.50;93.50;;;;;;5033646;28;20025;-53
2023/07/12 10:49:52;;;;;;;3.45;1.92;;;28.50;93.30;;;;;;5034823;28;20485;-55
2023/07/12 10:52:52;;;;;;;2.65;1.85;;;28.50;92.90;;;;;;5034676;28;20026;-53
2023/07/12 10:55:37;;;;;;;3.10;1.58;;;28.60;92.50;;;;;;5034010;28;20025;-53
2023/07/12 10:58:26;;;;;;;4.73;2.77;;;28.60;92.70;;;;;;5033267;28;20033;-52
2023/07/12 11:00:58;;;;;;;7.72;1.83;;;28.60;91.80;;;;;;5033880;28;20401;-52
2023/07/12 11:03:33;;;;;;;3.30;1.30;;;28.60;91.90;;;;;;5032614;28;20021;-53
2023/07/12 11:06:05;;;;;;;1.77;1.35;;;28.50;92.20;;;;;;5033487;28;20022;-54
2023/07/12 11:08:30;;;;;;;2.38;1.30;;;28.50;92.70;;;;;;5033745;28;20040;-56
2023/07/12 11:11:19;;;;;;;1.38;1.25;;;28.60;92.10;;;;;;5033766;28;20033;-55
2023/07/12 11:13:51;;;;;;;1.48;1.27;;;28.50;91.50;;;;;;5005401;28;20040;-50
2023/07/12 11:16:19;;;;;;;2.70;1.67;;;28.40;91.30;;;;;;5033229;28;20026;-52
2023/07/12 11:18:51;;;;;;;3.28;1.50;;;28.30;91.20;;;;;;5033711;28;20045;-51
2023/07/12 11:21:30;;;;;;;1.92;1.40;;;28.40;91.60;;;;;;5033894;28;20091;-53
2023/07/12 11:23:55;;;;;;;2.13;1.40;;;28.30;92.00;;;;;;5033727;28;20029;-55
2023/07/12 11:26:26;;;;;;;1.27;1.02;;;28.30;91.70;;;;;;5032956;28;20029;-51
2023/07/12 11:28:52;;;;;;;2.03;1.27;;;28.30;91.30;;;;;;5033511;28;20029;-54
2023/07/12 11:31:26;;;;;;;5.30;1.33;;;28.20;91.40;;;;;;5033691;28;20025;-51
2023/07/12 11:33:57;;;;;;;6.32;1.33;;;28.20;91.40;;;;;;5033449;28;20044;-51
2023/07/12 11:36:28;;;;;;;1.70;1.27;;;28.30;91.40;;;;;;5032519;28;20028;-52
2023/07/12 11:38:55;;;;;;;1.45;1.10;;;28.30;91.60;;;;;;5032263;28;20033;-49
2023/07/12 11:41:26;;;;;;;4.88;1.80;;;28.40;91.60;;;;;;5033082;28;20087;-54
2023/07/12 11:44:03;;;;;;;2.25;1.35;;;28.20;91.60;;;;;;5033023;28;20036;-53
2023/07/12 11:46:34;;;;;;;2.47;1.30;;;28.30;91.30;;;;;;5032766;28;20029;-54
2023/07/12 11:49:11;;;;;;;1.45;1.10;;;28.50;91.10;;;;;;5033207;28;20025;-51
2023/07/12 11:51:39;;;;;;;4.07;1.40;;;28.60;91.20;;;;;;5032983;28;20075;-53
2023/07/12 11:54:36;;;;;;;3.05;1.90;;;28.60;91.00;;;;;;5032820;28;20024;-56
2023/07/12 11:57:02;;;;;;;1.50;1.40;;;28.60;90.70;;;;;;5032283;28;20106;-52
2023/07/12 11:59:32;;;;;;;3.60;1.05;;;28.50;91.20;;;;;;5033013;28;20048;-51
2023/07/12 12:01:58;;;;;;;1.63;1.10;;;28.40;91.20;;;;;;5032876;28;20026;-51
2023/07/12 12:04:26;;;;;;;1.50;1.17;;;28.50;90.60;;;;;;5032703;28;20196;-55
2023/07/12 12:06:57;;;;;;;1.00;1.00;;;28.60;90.70;;;;;;5031971;28;20029;-53
2023/07/12 12:09:27;;;;;;;6.25;1.40;;;28.80;90.70;;;;;;5032769;28;20033;-53
2023/07/12 12:11:57;;;;;;;2.92;0.85;;;28.80;90.80;;;;;;5031781;28;20549;-52
2023/07/12 12:14:26;;;;;;;3.33;1.20;;;28.80;90.20;;;;;;5032468;28;20029;-49
2023/07/12 12:16:53;;;;;;;1.70;1.10;;;28.60;90.10;;;;;;5031662;28;20021;-51
2023/07/12 12:19:19;;;;;;;1.80;1.35;;;28.40;90.20;;;;;;5033084;28;20040;-50
2023/07/12 12:21:51;;;;;;;1.23;1.10;;;28.50;90.70;;;;;;5032428;28;20032;-50
2023/07/12 12:24:21;;;;;;;3.80;1.20;;;28.60;90.60;;;;;;5032184;28;20452;-52
2023/07/12 12:26:49;;;;;;;2.42;1.10;;;28.70;90.30;;;;;;5031962;28;20477;-49
2023/07/12 12:29:17;;;;;;;3.45;1.10;;;28.70;90.60;;;;;;5032186;28;20135;-53
2023/07/12 12:31:56;;;;;;;6.95;1.10;;;28.80;90.00;;;;;;5032088;28;20030;-54
2023/07/12 12:34:26;;;;;;;1.15;1.02;;;28.90;89.50;;;;;;5032092;28;20025;-53
2023/07/12 12:36:57;;;;;;;2.92;1.20;;;28.80;87.70;;;;;;5031492;28;20064;-50
2023/07/12 12:39:22;;;;;;;1.48;1.38;;;28.70;88.90;;;;;;5031119;28;20025;-55
2023/07/12 12:41:59;;;;;;;8.30;3.05;;;28.80;89.10;;;;;;5031330;28;20025;-51
2023/07/12 12:44:28;;;;;;;4.97;2.10;;;28.80;89.30;;;;;;5032072;28;20030;-54
2023/07/12 12:46:56;;;;;;;0.95;0.95;;;28.70;89.70;;;;;;5030876;28;20048;-55
2023/07/12 12:49:28;;;;;;;2.75;1.00;;;28.70;89.20;;;;;;5031776;28;20449;-54
2023/07/12 12:51:56;;;;;;;2.22;1.38;;;28.70;89.30;;;;;;5031708;28;20026;-55
2023/07/12 12:54:22;;;;;;;1.20;1.10;;;28.70;89.10;;;;;;5031835;28;20017;-51
2023/07/12 12:56:49;;;;;;;2.47;1.00;;;28.60;88.70;;;;;;5031125;28;20079;-53